sensor_id;sensor_type;location;lat;lon;timestamp;temperature;humidity
14884;DHT22;7534;50.762;7.000;2024-03-08T00:01:15;3.20;71.70
14884;DHT22;7534;50.762;7.000;2024-03-08T00:03:42;3.20;71.60
14884;DHT22;7534;50.762;7.000;2024-03-08T00:06:08;3.20;71.90
14884;DHT22;7534;50.762;7.000;2024-03-08T00:08:33;3.10;72.50
14884;DHT22;7534;50.762;7.000;2024-03-08T00:10:59;3.00;72.50
14884;DHT22;7534;50.762;7.000;2024-03-08T00:13:25;2.90;73.00
14884;DHT22;7534;50.762;7.000;2024-03-08T00:15:51;2.80;73.70
14884;DHT22;7534;50.762;7.000;2024-03-08T00:18:16;2.70;74.10
14884;DHT22;7534;50.762;7.000;2024-03-08T00:20:42;2.70;74.20
14884;DHT22;7534;50.762;7.000;2024-03-08T00:23:10;2.60;74.50
14884;DHT22;7534;50.762;7.000;2024-03-08T00:25:36;2.60;74.90
14884;DHT22;7534;50.762;7.000;2024-03-08T00:28:02;2.50;75.20
14884;DHT22;7534;50.762;7.000;2024-03-08T00:30:31;2.40;75.30
14884;DHT22;7534;50.762;7.000;2024-03-08T00:32:57;2.50;75.40
14884;DHT22;7534;50.762;7.000;2024-03-08T00:35:23;2.40;75.90
14884;DHT22;7534;50.762;7.000;2024-03-08T00:37:49;2.30;76.30
14884;DHT22;7534;50.762;7.000;2024-03-08T00:40:15;2.20;76.40
14884;DHT22;7534;50.762;7.000;2024-03-08T00:42:40;2.30;76.30
14884;DHT22;7534;50.762;7.000;2024-03-08T00:45:07;2.20;76.40
14884;DHT22;7534;50.762;7.000;2024-03-08T00:47:35;2.20;76.30
14884;DHT22;7534;50.762;7.000;2024-03-08T00:50:01;2.20;76.30
14884;DHT22;7534;50.762;7.000;2024-03-08T00:52:29;2.20;76.40
14884;DHT22;7534;50.762;7.000;2024-03-08T00:54:55;2.20;76.50
14884;DHT22;7534;50.762;7.000;2024-03-08T00:57:20;2.10;76.50
14884;DHT22;7534;50.762;7.000;2024-03-08T00:59:47;2.10;76.70
14884;DHT22;7534;50.762;7.000;2024-03-08T01:02:13;2.10;76.90
14884;DHT22;7534;50.762;7.000;2024-03-08T01:04:39;2.10;77.00
14884;DHT22;7534;50.762;7.000;2024-03-08T01:07:05;2.00;77.10
14884;DHT22;7534;50.762;7.000;2024-03-08T01:09:31;2.10;77.00
14884;DHT22;7534;50.762;7.000;2024-03-08T01:11:57;2.00;77.10
14884;DHT22;7534;50.762;7.000;2024-03-08T01:14:23;2.10;77.00
14884;DHT22;7534;50.762;7.000;2024-03-08T01:16:51;2.00;77.10
14884;DHT22;7534;50.762;7.000;2024-03-08T01:19:17;1.90;77.30
14884;DHT22;7534;50.762;7.000;2024-03-08T01:21:43;1.90;77.50
14884;DHT22;7534;50.762;7.000;2024-03-08T01:24:09;1.80;77.60
14884;DHT22;7534;50.762;7.000;2024-03-08T01:26:34;1.80;77.60
14884;DHT22;7534;50.762;7.000;2024-03-08T01:29:01;1.80;77.80
14884;DHT22;7534;50.762;7.000;2024-03-08T01:31:29;1.80;77.90
14884;DHT22;7534;50.762;7.000;2024-03-08T01:33:56;1.80;78.10
14884;DHT22;7534;50.762;7.000;2024-03-08T01:36:22;1.80;78.00
14884;DHT22;7534;50.762;7.000;2024-03-08T01:38:47;1.80;77.90
14884;DHT22;7534;50.762;7.000;2024-03-08T01:41:13;1.90;77.40
14884;DHT22;7534;50.762;7.000;2024-03-08T01:43:39;1.90;77.40
14884;DHT22;7534;50.762;7.000;2024-03-08T01:46:05;1.90;77.30
14884;DHT22;7534;50.762;7.000;2024-03-08T01:48:33;1.80;77.40
14884;DHT22;7534;50.762;7.000;2024-03-08T01:50:59;1.70;77.60
14884;DHT22;7534;50.762;7.000;2024-03-08T01:53:26;1.60;77.70
14884;DHT22;7534;50.762;7.000;2024-03-08T01:55:57;1.50;78.30
14884;DHT22;7534;50.762;7.000;2024-03-08T01:58:24;1.40;78.90
14884;DHT22;7534;50.762;7.000;2024-03-08T02:00:53;1.40;79.10
14884;DHT22;7534;50.762;7.000;2024-03-08T02:03:20;1.40;79.30
14884;DHT22;7534;50.762;7.000;2024-03-08T02:05:46;1.20;79.60
14884;DHT22;7534;50.762;7.000;2024-03-08T02:08:12;1.20;79.90
14884;DHT22;7534;50.762;7.000;2024-03-08T02:10:40;1.10;80.10
14884;DHT22;7534;50.762;7.000;2024-03-08T02:13:07;0.90;80.50
14884;DHT22;7534;50.762;7.000;2024-03-08T02:15:55;0.70;81.00
14884;DHT22;7534;50.762;7.000;2024-03-08T02:18:22;0.60;82.00
14884;DHT22;7534;50.762;7.000;2024-03-08T02:20:52;0.50;82.60
14884;DHT22;7534;50.762;7.000;2024-03-08T02:23:21;0.40;82.70
14884;DHT22;7534;50.762;7.000;2024-03-08T02:25:47;0.30;83.00
14884;DHT22;7534;50.762;7.000;2024-03-08T02:28:14;0.30;84.20
14884;DHT22;7534;50.762;7.000;2024-03-08T02:30:40;0.30;84.40
14884;DHT22;7534;50.762;7.000;2024-03-08T02:33:06;0.20;84.20
14884;DHT22;7534;50.762;7.000;2024-03-08T02:35:33;0.10;84.40
14884;DHT22;7534;50.762;7.000;2024-03-08T02:37:59;0.00;84.80
14884;DHT22;7534;50.762;7.000;2024-03-08T02:40:25;-0.10;85.00
14884;DHT22;7534;50.762;7.000;2024-03-08T02:42:51;-0.20;85.60
14884;DHT22;7534;50.762;7.000;2024-03-08T02:45:17;-0.20;86.20
14884;DHT22;7534;50.762;7.000;2024-03-08T02:47:42;0.00;87.00
14884;DHT22;7534;50.762;7.000;2024-03-08T02:50:10;0.20;86.40
14884;DHT22;7534;50.762;7.000;2024-03-08T02:52:37;0.20;85.50
14884;DHT22;7534;50.762;7.000;2024-03-08T02:55:03;0.30;85.10
14884;DHT22;7534;50.762;7.000;2024-03-08T02:57:31;0.20;84.80
14884;DHT22;7534;50.762;7.000;2024-03-08T02:59:57;0.10;84.90
14884;DHT22;7534;50.762;7.000;2024-03-08T03:02:25;0.00;85.50
14884;DHT22;7534;50.762;7.000;2024-03-08T03:04:52;0.00;86.00
14884;DHT22;7534;50.762;7.000;2024-03-08T03:07:18;-0.10;86.80
14884;DHT22;7534;50.762;7.000;2024-03-08T03:09:43;-0.10;87.30
14884;DHT22;7534;50.762;7.000;2024-03-08T03:12:09;0.10;87.50
14884;DHT22;7534;50.762;7.000;2024-03-08T03:14:37;0.20;87.40
14884;DHT22;7534;50.762;7.000;2024-03-08T03:17:06;0.50;85.90
14884;DHT22;7534;50.762;7.000;2024-03-08T03:19:31;0.50;85.50
14884;DHT22;7534;50.762;7.000;2024-03-08T03:21:57;0.50;85.00
14884;DHT22;7534;50.762;7.000;2024-03-08T03:24:23;0.60;84.40
14884;DHT22;7534;50.762;7.000;2024-03-08T03:26:49;0.60;83.90
14884;DHT22;7534;50.762;7.000;2024-03-08T03:29:15;0.60;83.50
14884;DHT22;7534;50.762;7.000;2024-03-08T03:31:42;0.40;83.50
14884;DHT22;7534;50.762;7.000;2024-03-08T03:34:12;0.30;83.80
14884;DHT22;7534;50.762;7.000;2024-03-08T03:36:38;0.10;84.50
14884;DHT22;7534;50.762;7.000;2024-03-08T03:39:09;-0.10;85.40
14884;DHT22;7534;50.762;7.000;2024-03-08T03:41:45;-0.20;86.00
14884;DHT22;7534;50.762;7.000;2024-03-08T03:44:11;-0.30;86.50
14884;DHT22;7534;50.762;7.000;2024-03-08T03:46:37;-0.50;86.80
14884;DHT22;7534;50.762;7.000;2024-03-08T03:49:03;-0.50;87.50
14884;DHT22;7534;50.762;7.000;2024-03-08T03:51:29;-0.60;87.70
14884;DHT22;7534;50.762;7.000;2024-03-08T03:53:55;-0.70;88.00
14884;DHT22;7534;50.762;7.000;2024-03-08T03:56:25;-0.80;88.20
14884;DHT22;7534;50.762;7.000;2024-03-08T03:58:52;-0.90;88.80
14884;DHT22;7534;50.762;7.000;2024-03-08T04:01:17;-1.00;89.20
14884;DHT22;7534;50.762;7.000;2024-03-08T04:03:43;-1.00;89.40
14884;DHT22;7534;50.762;7.000;2024-03-08T04:06:09;-1.10;89.70
14884;DHT22;7534;50.762;7.000;2024-03-08T04:08:35;-1.10;89.80
14884;DHT22;7534;50.762;7.000;2024-03-08T04:11:01;-1.20;90.10
14884;DHT22;7534;50.762;7.000;2024-03-08T04:13:27;-1.30;90.30
14884;DHT22;7534;50.762;7.000;2024-03-08T04:15:53;-1.30;90.60
14884;DHT22;7534;50.762;7.000;2024-03-08T04:18:19;-1.30;90.70
14884;DHT22;7534;50.762;7.000;2024-03-08T04:20:45;-1.40;90.70
14884;DHT22;7534;50.762;7.000;2024-03-08T04:23:11;-1.40;90.90
14884;DHT22;7534;50.762;7.000;2024-03-08T04:25:36;-1.50;91.00
14884;DHT22;7534;50.762;7.000;2024-03-08T04:28:03;-1.50;91.40
14884;DHT22;7534;50.762;7.000;2024-03-08T04:30:28;-1.60;91.40
14884;DHT22;7534;50.762;7.000;2024-03-08T04:32:55;-1.60;91.60
14884;DHT22;7534;50.762;7.000;2024-03-08T04:35:21;-1.50;92.20
14884;DHT22;7534;50.762;7.000;2024-03-08T04:37:46;-1.50;92.30
14884;DHT22;7534;50.762;7.000;2024-03-08T04:40:12;-1.50;92.30
14884;DHT22;7534;50.762;7.000;2024-03-08T04:42:39;-1.50;92.30
14884;DHT22;7534;50.762;7.000;2024-03-08T04:45:06;-1.60;92.20
14884;DHT22;7534;50.762;7.000;2024-03-08T04:47:33;-1.60;92.30
14884;DHT22;7534;50.762;7.000;2024-03-08T04:49:59;-1.60;92.40
14884;DHT22;7534;50.762;7.000;2024-03-08T04:52:25;-1.60;92.40
14884;DHT22;7534;50.762;7.000;2024-03-08T04:54:51;-1.60;92.40
14884;DHT22;7534;50.762;7.000;2024-03-08T04:57:16;-1.70;92.50
14884;DHT22;7534;50.762;7.000;2024-03-08T04:59:45;-1.70;92.60
14884;DHT22;7534;50.762;7.000;2024-03-08T05:02:11;-1.70;92.80
14884;DHT22;7534;50.762;7.000;2024-03-08T05:04:37;-1.70;93.20
14884;DHT22;7534;50.762;7.000;2024-03-08T05:07:02;-1.70;93.50
14884;DHT22;7534;50.762;7.000;2024-03-08T05:09:29;-1.70;93.40
14884;DHT22;7534;50.762;7.000;2024-03-08T05:11:56;-1.70;93.40
14884;DHT22;7534;50.762;7.000;2024-03-08T05:14:25;-1.70;93.40
14884;DHT22;7534;50.762;7.000;2024-03-08T05:16:51;-1.70;93.30
14884;DHT22;7534;50.762;7.000;2024-03-08T05:19:17;-1.80;93.30
14884;DHT22;7534;50.762;7.000;2024-03-08T05:21:44;-1.80;93.20
14884;DHT22;7534;50.762;7.000;2024-03-08T05:24:11;-1.80;93.20
14884;DHT22;7534;50.762;7.000;2024-03-08T05:26:36;-1.80;93.30
14884;DHT22;7534;50.762;7.000;2024-03-08T05:29:05;-1.80;93.40
14884;DHT22;7534;50.762;7.000;2024-03-08T05:31:38;-1.90;93.60
14884;DHT22;7534;50.762;7.000;2024-03-08T05:34:12;-1.80;94.10
14884;DHT22;7534;50.762;7.000;2024-03-08T05:36:40;-1.80;94.30
14884;DHT22;7534;50.762;7.000;2024-03-08T05:39:08;-1.70;94.60
14884;DHT22;7534;50.762;7.000;2024-03-08T05:41:37;-1.50;95.10
14884;DHT22;7534;50.762;7.000;2024-03-08T05:44:06;-1.40;94.80
14884;DHT22;7534;50.762;7.000;2024-03-08T05:46:32;-1.30;94.30
14884;DHT22;7534;50.762;7.000;2024-03-08T05:48:57;-1.40;93.80
14884;DHT22;7534;50.762;7.000;2024-03-08T05:51:25;-1.30;93.90
14884;DHT22;7534;50.762;7.000;2024-03-08T05:53:53;-1.10;94.00
14884;DHT22;7534;50.762;7.000;2024-03-08T05:56:21;-0.90;93.60
14884;DHT22;7534;50.762;7.000;2024-03-08T05:58:48;-0.70;92.90
14884;DHT22;7534;50.762;7.000;2024-03-08T06:01:15;-0.50;91.90
14884;DHT22;7534;50.762;7.000;2024-03-08T06:03:41;-0.50;91.20
14884;DHT22;7534;50.762;7.000;2024-03-08T06:06:13;-0.40;90.60
14884;DHT22;7534;50.762;7.000;2024-03-08T06:08:40;-0.20;90.10
14884;DHT22;7534;50.762;7.000;2024-03-08T06:11:08;-0.20;89.80
14884;DHT22;7534;50.762;7.000;2024-03-08T06:13:34;-0.10;89.40
14884;DHT22;7534;50.762;7.000;2024-03-08T06:16:00;0.00;88.60
14884;DHT22;7534;50.762;7.000;2024-03-08T06:18:30;0.10;88.00
14884;DHT22;7534;50.762;7.000;2024-03-08T06:20:56;0.10;87.90
14884;DHT22;7534;50.762;7.000;2024-03-08T06:23:22;0.10;87.80
14884;DHT22;7534;50.762;7.000;2024-03-08T06:25:48;0.20;87.60
14884;DHT22;7534;50.762;7.000;2024-03-08T06:28:14;0.30;87.00
14884;DHT22;7534;50.762;7.000;2024-03-08T06:30:40;0.50;86.50
14884;DHT22;7534;50.762;7.000;2024-03-08T06:33:06;0.60;85.80
14884;DHT22;7534;50.762;7.000;2024-03-08T06:35:32;0.90;84.50
14884;DHT22;7534;50.762;7.000;2024-03-08T06:37:58;1.30;83.80
14884;DHT22;7534;50.762;7.000;2024-03-08T06:40:24;1.80;81.00
14884;DHT22;7534;50.762;7.000;2024-03-08T06:42:50;2.30;78.50
14884;DHT22;7534;50.762;7.000;2024-03-08T06:45:17;3.10;75.80
14884;DHT22;7534;50.762;7.000;2024-03-08T06:47:46;4.20;71.00
14884;DHT22;7534;50.762;7.000;2024-03-08T06:50:13;5.20;67.70
14884;DHT22;7534;50.762;7.000;2024-03-08T06:52:40;5.60;65.00
14884;DHT22;7534;50.762;7.000;2024-03-08T06:55:08;5.20;65.00
14884;DHT22;7534;50.762;7.000;2024-03-08T06:57:38;4.90;66.40
14884;DHT22;7534;50.762;7.000;2024-03-08T07:00:07;5.40;65.60
14884;DHT22;7534;50.762;7.000;2024-03-08T07:02:35;6.20;63.30
14884;DHT22;7534;50.762;7.000;2024-03-08T07:05:01;6.50;61.60
14884;DHT22;7534;50.762;7.000;2024-03-08T07:07:28;6.70;61.20
14884;DHT22;7534;50.762;7.000;2024-03-08T07:09:57;6.80;60.40
14884;DHT22;7534;50.762;7.000;2024-03-08T07:12:22;6.80;60.10
14884;DHT22;7534;50.762;7.000;2024-03-08T07:14:49;6.30;61.00
14884;DHT22;7534;50.762;7.000;2024-03-08T07:17:14;6.50;61.50
14884;DHT22;7534;50.762;7.000;2024-03-08T07:19:41;6.70;60.40
14884;DHT22;7534;50.762;7.000;2024-03-08T07:22:07;6.90;60.60
14884;DHT22;7534;50.762;7.000;2024-03-08T07:24:36;7.10;60.50
14884;DHT22;7534;50.762;7.000;2024-03-08T07:27:03;7.40;59.70
14884;DHT22;7534;50.762;7.000;2024-03-08T07:29:31;8.10;57.10
14884;DHT22;7534;50.762;7.000;2024-03-08T07:31:58;7.90;57.10
14884;DHT22;7534;50.762;7.000;2024-03-08T07:34:38;7.40;58.30
14884;DHT22;7534;50.762;7.000;2024-03-08T07:37:05;7.70;57.90
14884;DHT22;7534;50.762;7.000;2024-03-08T07:39:37;8.00;57.80
14884;DHT22;7534;50.762;7.000;2024-03-08T07:42:04;9.10;55.40
14884;DHT22;7534;50.762;7.000;2024-03-08T07:44:30;9.90;53.40
14884;DHT22;7534;50.762;7.000;2024-03-08T07:46:57;10.60;51.20
14884;DHT22;7534;50.762;7.000;2024-03-08T07:49:22;11.00;49.20
14884;DHT22;7534;50.762;7.000;2024-03-08T07:51:48;11.10;48.40
14884;DHT22;7534;50.762;7.000;2024-03-08T07:54:14;11.50;46.90
14884;DHT22;7534;50.762;7.000;2024-03-08T07:56:40;11.40;47.00
14884;DHT22;7534;50.762;7.000;2024-03-08T07:59:07;12.10;44.60
14884;DHT22;7534;50.762;7.000;2024-03-08T08:01:33;11.70;44.60
14884;DHT22;7534;50.762;7.000;2024-03-08T08:03:59;12.20;44.10
14884;DHT22;7534;50.762;7.000;2024-03-08T08:06:27;12.70;42.70
14884;DHT22;7534;50.762;7.000;2024-03-08T08:08:52;13.10;41.60
14884;DHT22;7534;50.762;7.000;2024-03-08T08:11:19;13.20;40.80
14884;DHT22;7534;50.762;7.000;2024-03-08T08:13:45;12.60;42.20
14884;DHT22;7534;50.762;7.000;2024-03-08T08:16:11;13.20;40.90
14884;DHT22;7534;50.762;7.000;2024-03-08T08:18:38;13.20;40.90
14884;DHT22;7534;50.762;7.000;2024-03-08T08:21:05;13.70;39.60
14884;DHT22;7534;50.762;7.000;2024-03-08T08:23:33;14.20;39.20
14884;DHT22;7534;50.762;7.000;2024-03-08T08:25:59;13.40;39.90
14884;DHT22;7534;50.762;7.000;2024-03-08T08:28:26;14.20;39.10
14884;DHT22;7534;50.762;7.000;2024-03-08T08:30:52;13.70;39.80
14884;DHT22;7534;50.762;7.000;2024-03-08T08:33:18;13.80;39.90
14884;DHT22;7534;50.762;7.000;2024-03-08T08:35:44;14.70;38.50
14884;DHT22;7534;50.762;7.000;2024-03-08T08:38:10;15.20;37.70
14884;DHT22;7534;50.762;7.000;2024-03-08T08:40:37;14.60;38.20
14884;DHT22;7534;50.762;7.000;2024-03-08T08:43:03;14.20;39.60
14884;DHT22;7534;50.762;7.000;2024-03-08T08:45:32;15.00;38.30
14884;DHT22;7534;50.762;7.000;2024-03-08T08:47:59;15.30;36.70
14884;DHT22;7534;50.762;7.000;2024-03-08T08:50:26;15.20;37.60
14884;DHT22;7534;50.762;7.000;2024-03-08T08:52:54;14.80;37.50
14884;DHT22;7534;50.762;7.000;2024-03-08T08:55:20;15.30;36.50
14884;DHT22;7534;50.762;7.000;2024-03-08T08:57:47;15.80;35.70
14884;DHT22;7534;50.762;7.000;2024-03-08T09:00:13;15.50;35.60
14884;DHT22;7534;50.762;7.000;2024-03-08T09:02:42;15.70;35.60
14884;DHT22;7534;50.762;7.000;2024-03-08T09:05:08;15.30;36.30
14884;DHT22;7534;50.762;7.000;2024-03-08T09:07:33;15.20;36.60
14884;DHT22;7534;50.762;7.000;2024-03-08T09:10:02;15.70;36.10
14884;DHT22;7534;50.762;7.000;2024-03-08T09:12:28;14.60;37.30
14884;DHT22;7534;50.762;7.000;2024-03-08T09:14:54;15.30;36.40
14884;DHT22;7534;50.762;7.000;2024-03-08T09:17:20;15.70;35.70
14884;DHT22;7534;50.762;7.000;2024-03-08T09:19:49;15.50;35.90
14884;DHT22;7534;50.762;7.000;2024-03-08T09:22:15;16.00;34.80
14884;DHT22;7534;50.762;7.000;2024-03-08T09:24:41;16.60;34.30
14884;DHT22;7534;50.762;7.000;2024-03-08T09:27:08;17.40;32.50
14884;DHT22;7534;50.762;7.000;2024-03-08T09:29:35;18.00;31.70
14884;DHT22;7534;50.762;7.000;2024-03-08T09:32:01;17.50;32.20
14884;DHT22;7534;50.762;7.000;2024-03-08T09:34:28;17.60;31.60
14884;DHT22;7534;50.762;7.000;2024-03-08T09:36:54;17.50;31.80
14884;DHT22;7534;50.762;7.000;2024-03-08T09:39:19;17.60;31.70
14884;DHT22;7534;50.762;7.000;2024-03-08T09:41:47;17.70;32.00
14884;DHT22;7534;50.762;7.000;2024-03-08T09:44:18;17.60;32.10
14884;DHT22;7534;50.762;7.000;2024-03-08T09:46:46;17.90;31.30
14884;DHT22;7534;50.762;7.000;2024-03-08T09:49:16;17.80;31.60
14884;DHT22;7534;50.762;7.000;2024-03-08T09:51:42;17.90;31.30
14884;DHT22;7534;50.762;7.000;2024-03-08T09:54:08;17.10;32.00
14884;DHT22;7534;50.762;7.000;2024-03-08T09:56:35;16.30;33.80
14884;DHT22;7534;50.762;7.000;2024-03-08T09:59:02;16.40;33.80
14884;DHT22;7534;50.762;7.000;2024-03-08T10:01:37;16.80;33.20
14884;DHT22;7534;50.762;7.000;2024-03-08T10:04:04;17.40;32.00
14884;DHT22;7534;50.762;7.000;2024-03-08T10:06:30;16.30;32.80
14884;DHT22;7534;50.762;7.000;2024-03-08T10:08:57;16.80;33.40
14884;DHT22;7534;50.762;7.000;2024-03-08T10:11:24;17.10;32.10
14884;DHT22;7534;50.762;7.000;2024-03-08T10:13:50;16.80;32.30
14884;DHT22;7534;50.762;7.000;2024-03-08T10:16:16;16.40;32.80
14884;DHT22;7534;50.762;7.000;2024-03-08T10:18:47;15.80;33.30
14884;DHT22;7534;50.762;7.000;2024-03-08T10:21:13;15.00;35.10
14884;DHT22;7534;50.762;7.000;2024-03-08T10:23:40;14.60;35.60
14884;DHT22;7534;50.762;7.000;2024-03-08T10:26:13;14.40;36.20
14884;DHT22;7534;50.762;7.000;2024-03-08T10:28:47;13.20;37.60
14884;DHT22;7534;50.762;7.000;2024-03-08T10:31:14;12.10;39.90
14884;DHT22;7534;50.762;7.000;2024-03-08T10:33:45;11.50;41.20
14884;DHT22;7534;50.762;7.000;2024-03-08T10:36:13;11.10;42.60
14884;DHT22;7534;50.762;7.000;2024-03-08T10:38:40;11.00;42.90
14884;DHT22;7534;50.762;7.000;2024-03-08T10:41:08;10.80;43.10
14884;DHT22;7534;50.762;7.000;2024-03-08T10:44:00;10.50;43.90
14884;DHT22;7534;50.762;7.000;2024-03-08T10:47:02;10.60;44.20
14884;DHT22;7534;50.762;7.000;2024-03-08T10:49:39;10.70;43.50
14884;DHT22;7534;50.762;7.000;2024-03-08T10:52:11;10.80;43.40
14884;DHT22;7534;50.762;7.000;2024-03-08T10:54:39;11.00;43.00
14884;DHT22;7534;50.762;7.000;2024-03-08T10:57:06;10.80;43.50
14884;DHT22;7534;50.762;7.000;2024-03-08T10:59:35;10.80;43.80
14884;DHT22;7534;50.762;7.000;2024-03-08T11:02:01;10.90;44.00
14884;DHT22;7534;50.762;7.000;2024-03-08T11:04:27;10.90;43.90
14884;DHT22;7534;50.762;7.000;2024-03-08T11:07:00;10.90;43.70
14884;DHT22;7534;50.762;7.000;2024-03-08T11:12:18;11.00;43.60
14884;DHT22;7534;50.762;7.000;2024-03-08T11:14:52;11.10;43.20
14884;DHT22;7534;50.762;7.000;2024-03-08T11:19:58;11.20;42.80
14884;DHT22;7534;50.762;7.000;2024-03-08T11:22:32;11.30;42.80
14884;DHT22;7534;50.762;7.000;2024-03-08T11:25:02;11.30;42.50
14884;DHT22;7534;50.762;7.000;2024-03-08T11:27:33;11.40;42.80
14884;DHT22;7534;50.762;7.000;2024-03-08T11:30:04;11.40;43.40
14884;DHT22;7534;50.762;7.000;2024-03-08T11:32:46;11.30;43.90
14884;DHT22;7534;50.762;7.000;2024-03-08T11:35:20;11.50;43.70
14884;DHT22;7534;50.762;7.000;2024-03-08T11:37:48;11.60;42.30
14884;DHT22;7534;50.762;7.000;2024-03-08T11:40:16;11.60;42.30
14884;DHT22;7534;50.762;7.000;2024-03-08T11:42:46;11.50;42.60
14884;DHT22;7534;50.762;7.000;2024-03-08T11:45:17;11.70;42.20
14884;DHT22;7534;50.762;7.000;2024-03-08T11:47:43;11.80;42.30
14884;DHT22;7534;50.762;7.000;2024-03-08T11:50:13;11.90;42.30
14884;DHT22;7534;50.762;7.000;2024-03-08T11:52:39;11.90;41.90
14884;DHT22;7534;50.762;7.000;2024-03-08T11:55:06;11.90;42.20
14884;DHT22;7534;50.762;7.000;2024-03-08T11:57:32;12.00;41.10
14884;DHT22;7534;50.762;7.000;2024-03-08T11:59:58;12.00;40.70
14884;DHT22;7534;50.762;7.000;2024-03-08T12:02:34;11.90;40.60
14884;DHT22;7534;50.762;7.000;2024-03-08T12:05:04;12.00;41.10
14884;DHT22;7534;50.762;7.000;2024-03-08T12:07:35;12.20;40.20
14884;DHT22;7534;50.762;7.000;2024-03-08T12:10:34;12.20;40.30
14884;DHT22;7534;50.762;7.000;2024-03-08T12:13:00;12.10;40.90
14884;DHT22;7534;50.762;7.000;2024-03-08T12:15:27;12.10;40.80
14884;DHT22;7534;50.762;7.000;2024-03-08T12:17:54;12.00;41.40
14884;DHT22;7534;50.762;7.000;2024-03-08T12:20:23;12.00;41.50
14884;DHT22;7534;50.762;7.000;2024-03-08T12:22:54;12.20;41.10
14884;DHT22;7534;50.762;7.000;2024-03-08T12:25:26;12.30;40.90
14884;DHT22;7534;50.762;7.000;2024-03-08T12:28:08;12.30;41.10
14884;DHT22;7534;50.762;7.000;2024-03-08T12:30:48;12.40;40.40
14884;DHT22;7534;50.762;7.000;2024-03-08T12:33:16;12.50;39.60
14884;DHT22;7534;50.762;7.000;2024-03-08T12:35:53;12.50;40.10
14884;DHT22;7534;50.762;7.000;2024-03-08T12:38:21;12.50;39.90
14884;DHT22;7534;50.762;7.000;2024-03-08T12:40:50;12.50;40.00
14884;DHT22;7534;50.762;7.000;2024-03-08T12:43:20;12.60;39.70
14884;DHT22;7534;50.762;7.000;2024-03-08T12:45:46;12.70;39.50
14884;DHT22;7534;50.762;7.000;2024-03-08T12:48:15;12.70;39.10
14884;DHT22;7534;50.762;7.000;2024-03-08T12:50:41;12.70;39.30
14884;DHT22;7534;50.762;7.000;2024-03-08T12:53:13;12.60;39.10
14884;DHT22;7534;50.762;7.000;2024-03-08T12:55:39;12.50;39.50
14884;DHT22;7534;50.762;7.000;2024-03-08T12:58:05;12.40;39.20
14884;DHT22;7534;50.762;7.000;2024-03-08T13:00:33;12.40;39.60
14884;DHT22;7534;50.762;7.000;2024-03-08T13:03:02;12.50;39.70
14884;DHT22;7534;50.762;7.000;2024-03-08T13:05:28;12.40;39.80
14884;DHT22;7534;50.762;7.000;2024-03-08T13:07:55;12.40;39.90
14884;DHT22;7534;50.762;7.000;2024-03-08T13:10:22;12.40;40.10
14884;DHT22;7534;50.762;7.000;2024-03-08T13:12:48;12.50;40.10
14884;DHT22;7534;50.762;7.000;2024-03-08T13:15:14;12.60;39.70
14884;DHT22;7534;50.762;7.000;2024-03-08T13:17:49;12.60;39.20
14884;DHT22;7534;50.762;7.000;2024-03-08T13:20:15;12.40;39.90
14884;DHT22;7534;50.762;7.000;2024-03-08T13:22:44;12.40;40.00
14884;DHT22;7534;50.762;7.000;2024-03-08T13:25:10;12.40;40.00
14884;DHT22;7534;50.762;7.000;2024-03-08T13:27:42;12.40;39.80
14884;DHT22;7534;50.762;7.000;2024-03-08T13:30:09;12.40;40.00
14884;DHT22;7534;50.762;7.000;2024-03-08T13:32:40;12.30;39.70
14884;DHT22;7534;50.762;7.000;2024-03-08T13:35:11;12.50;40.10
14884;DHT22;7534;50.762;7.000;2024-03-08T13:37:44;12.70;39.40
14884;DHT22;7534;50.762;7.000;2024-03-08T13:40:10;12.70;39.30
14884;DHT22;7534;50.762;7.000;2024-03-08T13:42:44;12.60;39.70
14884;DHT22;7534;50.762;7.000;2024-03-08T13:45:10;12.50;39.80
14884;DHT22;7534;50.762;7.000;2024-03-08T13:47:36;12.50;39.60
14884;DHT22;7534;50.762;7.000;2024-03-08T13:50:05;12.60;39.40
14884;DHT22;7534;50.762;7.000;2024-03-08T13:52:39;12.60;39.40
14884;DHT22;7534;50.762;7.000;2024-03-08T13:55:05;12.60;39.70
14884;DHT22;7534;50.762;7.000;2024-03-08T13:57:32;12.70;39.20
14884;DHT22;7534;50.762;7.000;2024-03-08T13:59:58;12.70;39.60
14884;DHT22;7534;50.762;7.000;2024-03-08T14:02:25;12.60;39.20
14884;DHT22;7534;50.762;7.000;2024-03-08T14:04:55;12.60;39.50
14884;DHT22;7534;50.762;7.000;2024-03-08T14:07:21;12.70;39.40
14884;DHT22;7534;50.762;7.000;2024-03-08T14:09:49;12.80;39.50
14884;DHT22;7534;50.762;7.000;2024-03-08T14:12:15;12.80;39.40
14884;DHT22;7534;50.762;7.000;2024-03-08T14:14:41;12.70;39.40
14884;DHT22;7534;50.762;7.000;2024-03-08T14:17:10;12.70;39.80
14884;DHT22;7534;50.762;7.000;2024-03-08T14:19:37;12.70;39.80
14884;DHT22;7534;50.762;7.000;2024-03-08T14:22:04;12.80;39.20
14884;DHT22;7534;50.762;7.000;2024-03-08T14:24:31;12.70;39.70
14884;DHT22;7534;50.762;7.000;2024-03-08T14:26:57;12.80;39.70
14884;DHT22;7534;50.762;7.000;2024-03-08T14:29:25;12.90;39.40
14884;DHT22;7534;50.762;7.000;2024-03-08T14:31:55;12.90;39.50
14884;DHT22;7534;50.762;7.000;2024-03-08T14:34:25;12.60;39.80
14884;DHT22;7534;50.762;7.000;2024-03-08T14:36:55;12.60;40.30
14884;DHT22;7534;50.762;7.000;2024-03-08T14:39:22;12.60;40.20
14884;DHT22;7534;50.762;7.000;2024-03-08T14:41:52;12.40;40.40
14884;DHT22;7534;50.762;7.000;2024-03-08T14:44:21;12.20;41.10
14884;DHT22;7534;50.762;7.000;2024-03-08T14:46:53;12.10;41.60
14884;DHT22;7534;50.762;7.000;2024-03-08T14:49:20;12.20;41.40
14884;DHT22;7534;50.762;7.000;2024-03-08T14:51:46;12.30;41.40
14884;DHT22;7534;50.762;7.000;2024-03-08T14:54:12;12.40;41.00
14884;DHT22;7534;50.762;7.000;2024-03-08T14:56:38;12.40;40.60
14884;DHT22;7534;50.762;7.000;2024-03-08T14:59:06;12.30;40.50
14884;DHT22;7534;50.762;7.000;2024-03-08T15:01:33;12.30;40.80
14884;DHT22;7534;50.762;7.000;2024-03-08T15:04:01;12.40;40.50
14884;DHT22;7534;50.762;7.000;2024-03-08T15:06:41;12.30;40.50
14884;DHT22;7534;50.762;7.000;2024-03-08T15:09:08;12.20;41.10
14884;DHT22;7534;50.762;7.000;2024-03-08T15:11:45;12.30;41.20
14884;DHT22;7534;50.762;7.000;2024-03-08T15:14:11;12.30;41.10
14884;DHT22;7534;50.762;7.000;2024-03-08T15:16:40;12.20;41.40
14884;DHT22;7534;50.762;7.000;2024-03-08T15:19:06;12.10;41.20
14884;DHT22;7534;50.762;7.000;2024-03-08T15:21:33;12.10;41.30
14884;DHT22;7534;50.762;7.000;2024-03-08T15:24:00;12.10;41.30
14884;DHT22;7534;50.762;7.000;2024-03-08T15:26:28;12.10;41.30
14884;DHT22;7534;50.762;7.000;2024-03-08T15:28:55;12.20;41.30
14884;DHT22;7534;50.762;7.000;2024-03-08T15:31:22;12.30;41.00
14884;DHT22;7534;50.762;7.000;2024-03-08T15:33:50;12.20;41.40
14884;DHT22;7534;50.762;7.000;2024-03-08T15:36:36;12.10;41.80
14884;DHT22;7534;50.762;7.000;2024-03-08T15:39:02;12.00;41.80
14884;DHT22;7534;50.762;7.000;2024-03-08T15:41:35;12.00;42.00
14884;DHT22;7534;50.762;7.000;2024-03-08T15:44:01;12.00;42.20
14884;DHT22;7534;50.762;7.000;2024-03-08T15:46:26;12.10;42.40
14884;DHT22;7534;50.762;7.000;2024-03-08T15:48:53;12.10;41.70
14884;DHT22;7534;50.762;7.000;2024-03-08T15:51:19;12.10;41.80
14884;DHT22;7534;50.762;7.000;2024-03-08T15:53:45;12.10;42.30
14884;DHT22;7534;50.762;7.000;2024-03-08T15:56:18;12.10;41.90
14884;DHT22;7534;50.762;7.000;2024-03-08T15:58:45;12.10;41.90